Westlock, Canada
Current Conditions -  °F | °C
As of 11:00 AM on Friday 19 Dec 2014 (Local Time) from CZVL Reporting Station
Haze Haze  
Wind Chill:   Ceiling: Unl
Heat Index: 12°   Visibility: 5mi
Dew Point: 10°   Wind: 6mph
Humidity: 92%   Direction: 120°ESE
Pressure: 29.67"   Gusts: NA
Location:  54.15°N, 113.87°W
Report Text: CZVL 191800Z AUTO 12005KT 5SM BR CLR M11/M12 A2967 RMK SLP095
Loading
Personal Weather Stations






























Interactive Weather Map New forecast layout! Learn more

10-Day Weather Forecast

Advertisements
Track Severe Weather on mobile